Mountain City, Nevada
Current Conditions -  °F | °C
As of 12:56 AM on Monday 20 Oct 2014 (Local Time) from KEKO Reporting Station
Clear Clear  
Wind Chill: 45°   Ceiling: Unl
Heat Index: 48°   Visibility: 10mi
Dew Point: 29°   Wind: 7mph
Humidity: 48%   Direction: 80°E
Pressure: 30.01"   Gusts: NA
Location:  41.84°N, 115.97°W
Report Text: KEKO 200756Z AUTO 08006KT 10SM CLR 09/M02 A3001 RMK AO2 SLP125 T00891017 402500011
Loading
Personal Weather Stations






























Interactive Weather Map
Tropical Storm Tracking
New forecast layout! Learn more

10-Day Weather Forecast

Advertisements
Track Severe Weather on mobile